createdAt,value
2022-09-01T00:01:31.506Z,78.38
2022-09-01T00:03:57.954Z,78.30
2022-09-01T00:06:24.294Z,78.74
2022-09-01T00:08:50.662Z,79.30
2022-09-01T00:11:17.060Z,79.53
2022-09-01T00:13:43.559Z,80.36
2022-09-01T00:16:10.074Z,80.32
2022-09-01T00:18:36.375Z,80.36
2022-09-01T00:21:02.732Z,80.24
2022-09-01T00:23:29.091Z,80.07
2022-09-01T00:25:55.528Z,79.98
2022-09-01T00:28:21.925Z,80.17
2022-09-01T00:30:48.384Z,80.29
2022-09-01T00:33:14.731Z,80.40
2022-09-01T00:35:41.094Z,80.13
2022-09-01T00:38:07.477Z,80.07
2022-09-01T00:40:33.883Z,80.29
2022-09-01T00:43:00.216Z,80.05
2022-09-01T00:45:26.618Z,80.36
2022-09-01T00:47:53.016Z,80.38
2022-09-01T00:50:19.459Z,81.12
2022-09-01T00:52:45.826Z,81.25
2022-09-01T00:55:12.198Z,81.17
2022-09-01T00:57:38.556Z,81.70
2022-09-01T01:00:04.930Z,81.55
2022-09-01T01:02:31.359Z,81.25
2022-09-01T01:04:57.743Z,80.68
2022-09-01T01:07:24.105Z,81.25
2022-09-01T01:09:50.473Z,81.25
2022-09-01T01:12:16.868Z,81.21
2022-09-01T01:14:44.057Z,81.18
2022-09-01T01:17:09.679Z,81.36
2022-09-01T01:19:39.021Z,81.50
2022-09-01T01:22:02.408Z,81.24
2022-09-01T01:24:28.773Z,81.81
2022-09-01T01:26:55.235Z,81.50
2022-09-01T01:29:21.675Z,81.29
2022-09-01T01:31:48.035Z,80.73
2022-09-01T01:34:14.410Z,80.36
2022-09-01T01:36:40.771Z,80.55
2022-09-01T01:39:07.188Z,80.83
2022-09-01T01:41:33.570Z,81.35
2022-09-01T01:43:59.935Z,81.65
2022-09-01T01:46:26.344Z,81.81
2022-09-01T01:48:52.679Z,82.04
2022-09-01T01:51:19.070Z,82.00
2022-09-01T01:53:45.481Z,82.59
2022-09-01T01:56:11.844Z,83.36
2022-09-01T01:58:38.222Z,83.38
2022-09-01T02:01:04.699Z,83.26
2022-09-01T02:03:30.988Z,83.43
2022-09-01T02:05:57.408Z,83.53
2022-09-01T02:08:23.866Z,83.35
2022-09-01T02:10:50.234Z,83.27
2022-09-01T02:13:16.640Z,82.87
2022-09-01T02:15:43.023Z,82.76
2022-09-01T02:18:09.397Z,82.78
2022-09-01T02:20:35.786Z,82.82
2022-09-01T02:23:02.154Z,82.91
2022-09-01T02:25:28.515Z,83.30
2022-09-01T02:27:54.885Z,82.89
2022-09-01T02:30:21.257Z,82.43
2022-09-01T02:32:47.633Z,82.72
2022-09-01T02:35:14.022Z,82.00
2022-09-01T02:37:40.455Z,81.79
2022-09-01T02:40:06.890Z,80.99
2022-09-01T02:42:33.221Z,80.75
2022-09-01T02:44:59.587Z,81.43
2022-09-01T02:47:25.957Z,81.58
2022-09-01T02:49:52.407Z,81.63
2022-09-01T02:52:18.816Z,81.68
2022-09-01T02:54:45.205Z,81.92
2022-09-01T02:57:11.613Z,82.29
2022-09-01T02:59:43.121Z,82.03
2022-09-01T03:02:04.480Z,81.89
2022-09-01T03:04:30.916Z,82.18
2022-09-01T03:06:57.346Z,81.58
2022-09-01T03:09:23.704Z,81.67
2022-09-01T03:11:50.210Z,82.41
2022-09-01T03:14:16.643Z,82.25
2022-09-01T03:16:43.120Z,81.99
2022-09-01T03:19:09.485Z,82.01
2022-09-01T03:21:35.944Z,82.43
2022-09-01T03:24:02.374Z,82.83
2022-09-01T03:26:28.801Z,83.05
2022-09-01T03:28:55.185Z,83.30
2022-09-01T03:31:21.593Z,83.37
2022-09-01T03:33:47.927Z,83.61
2022-09-01T03:36:15.033Z,83.88
2022-09-01T03:38:40.691Z,84.53
2022-09-01T03:41:07.205Z,86.00
2022-09-01T03:43:35.539Z,86.72
2022-09-01T03:45:59.970Z,86.89
2022-09-01T03:48:26.324Z,87.70
2022-09-01T03:50:52.685Z,87.09
2022-09-01T03:53:19.070Z,87.47
2022-09-01T03:55:45.494Z,87.60
2022-09-01T03:58:11.907Z,88.11
2022-09-01T04:00:38.397Z,87.67
2022-09-01T04:03:04.790Z,87.97
2022-09-01T04:05:31.225Z,88.37
2022-09-01T04:07:57.656Z,88.42
2022-09-01T04:10:24.032Z,87.88
2022-09-01T04:12:50.426Z,87.93
2022-09-01T04:15:16.860Z,88.05
2022-09-01T04:17:43.223Z,88.91
2022-09-01T04:20:09.593Z,88.29
2022-09-01T04:22:35.974Z,87.76
2022-09-01T04:25:02.360Z,86.98
2022-09-01T04:27:28.721Z,86.84
2022-09-01T04:29:57.683Z,86.90
2022-09-01T04:32:21.508Z,86.94
2022-09-01T04:34:47.874Z,86.09
2022-09-01T04:37:14.341Z,86.64
2022-09-01T04:39:40.709Z,87.46
2022-09-01T04:42:07.077Z,87.44
2022-09-01T04:44:33.540Z,87.49
2022-09-01T04:46:59.972Z,87.74
2022-09-01T04:49:26.347Z,87.78
2022-09-01T04:51:54.226Z,87.77
2022-09-01T04:54:19.205Z,87.33
2022-09-01T04:56:45.589Z,86.88
2022-09-01T04:59:11.987Z,86.53
2022-09-01T05:01:38.336Z,87.29
2022-09-01T05:04:04.801Z,87.73
2022-09-01T05:06:31.266Z,88.05
2022-09-01T05:08:57.638Z,87.88
2022-09-01T05:11:24.238Z,87.93
2022-09-01T05:13:50.542Z,87.73
2022-09-01T05:16:20.338Z,87.88
2022-09-01T05:18:43.297Z,87.54
2022-09-01T05:21:09.682Z,87.09
2022-09-01T05:23:36.166Z,86.52
2022-09-01T05:26:02.595Z,85.35
2022-09-01T05:28:28.993Z,85.26
2022-09-01T05:30:55.378Z,85.39
2022-09-01T05:33:22.053Z,85.25
2022-09-01T05:35:48.242Z,84.93
2022-09-01T05:38:14.616Z,84.31
2022-09-01T05:40:41.128Z,83.92
2022-09-01T05:43:07.381Z,83.65
2022-09-01T05:45:56.279Z,83.77
2022-09-01T05:48:00.196Z,84.03
2022-09-01T05:50:26.560Z,84.34
2022-09-01T05:52:52.972Z,84.55
2022-09-01T05:55:19.353Z,83.58
2022-09-01T05:57:45.822Z,83.46
2022-09-01T06:00:12.192Z,83.88
2022-09-01T06:02:38.671Z,83.48
2022-09-01T06:05:04.974Z,83.49
2022-09-01T06:07:31.361Z,83.25
2022-09-01T06:09:57.727Z,82.83
2022-09-01T06:12:24.215Z,81.97
2022-09-01T06:14:50.584Z,81.88
2022-09-01T06:17:17.035Z,81.58
2022-09-01T06:19:43.522Z,81.50
2022-09-01T06:22:09.953Z,81.76
2022-09-01T06:24:36.310Z,81.87
2022-09-01T06:27:02.805Z,81.35
2022-09-01T06:29:29.178Z,80.65
2022-09-01T06:31:55.562Z,80.75
2022-09-01T06:34:21.971Z,80.25
2022-09-01T06:36:48.347Z,79.86
2022-09-01T06:39:14.734Z,79.00
2022-09-01T06:41:41.237Z,77.13
2022-09-01T06:44:12.399Z,76.60
2022-09-01T06:46:35.941Z,74.53
2022-09-01T06:49:00.408Z,75.15
2022-09-01T06:51:26.837Z,74.57
2022-09-01T06:53:53.277Z,73.02
2022-09-01T06:56:19.705Z,69.70
2022-09-01T06:58:46.108Z,66.70
2022-09-01T07:01:12.479Z,66.04
2022-09-01T07:03:38.917Z,65.22
2022-09-01T07:06:05.281Z,65.16
2022-09-01T07:08:31.785Z,64.75
2022-09-01T07:13:24.592Z,62.00
2022-09-01T07:18:17.435Z,59.39
2022-09-01T07:23:10.358Z,58.12
2022-09-01T07:26:00.698Z,57.57
2022-09-01T07:28:03.382Z,57.38
2022-09-01T07:30:29.746Z,56.93
2022-09-01T07:32:56.116Z,55.69
2022-09-01T07:35:22.579Z,55.41
2022-09-01T07:38:47.323Z,56.86
2022-09-01T07:52:27.385Z,51.44
2022-09-01T07:54:53.790Z,51.74
2022-09-01T07:57:20.183Z,51.28
2022-09-01T07:59:46.563Z,51.71
2022-09-01T08:02:13.077Z,50.86
2022-09-01T08:04:39.384Z,48.89
2022-09-01T08:07:05.846Z,49.58
2022-09-01T08:09:37.794Z,49.46
2022-09-01T08:12:02.182Z,49.46
2022-09-01T08:14:25.052Z,48.37
2022-09-01T08:16:53.001Z,48.91
2022-09-01T08:19:17.788Z,48.43
2022-09-01T08:21:44.156Z,49.17
2022-09-01T08:24:10.542Z,47.85
2022-09-01T08:26:36.914Z,47.15
2022-09-01T08:29:03.274Z,48.37
2022-09-01T08:31:31.231Z,47.44
2022-09-01T08:33:56.198Z,47.12
2022-09-01T08:36:24.877Z,47.16
2022-09-01T08:38:49.068Z,47.28
2022-09-01T08:41:15.501Z,47.09
2022-09-01T08:43:41.933Z,45.91
2022-09-01T08:46:08.332Z,45.80
2022-09-01T08:49:23.568Z,45.89
2022-09-01T08:51:01.129Z,45.90
2022-09-01T08:53:27.563Z,45.98
2022-09-01T08:55:53.948Z,45.62
2022-09-01T08:58:20.518Z,44.23
2022-09-01T09:00:50.524Z,42.77
2022-09-01T09:03:13.435Z,43.56
2022-09-01T09:05:39.726Z,42.65
2022-09-01T09:08:07.602Z,42.58
2022-09-01T09:10:32.539Z,42.30
2022-09-01T09:12:58.912Z,42.34
2022-09-01T09:15:25.383Z,40.92
2022-09-01T09:17:57.511Z,40.08
2022-09-01T09:20:18.222Z,40.14
2022-09-01T09:22:44.585Z,39.71
2022-09-01T09:25:10.986Z,39.10
2022-09-01T09:27:37.370Z,39.17
2022-09-01T09:30:08.244Z,38.67
2022-09-01T09:32:50.529Z,38.22
2022-09-01T09:34:56.620Z,38.40
2022-09-01T09:37:23.164Z,38.15
2022-09-01T09:39:49.415Z,37.88
2022-09-01T09:42:15.775Z,36.49
2022-09-01T09:44:42.141Z,36.46
2022-09-01T09:47:27.222Z,36.29
2022-09-01T09:49:41.402Z,35.74
2022-09-01T09:52:01.400Z,38.45
2022-09-01T09:54:27.775Z,37.60
2022-09-01T09:56:54.204Z,38.56
2022-09-01T09:59:39.476Z,37.17
2022-09-01T10:01:47.112Z,36.33
2022-09-01T10:04:13.561Z,35.34
2022-09-01T10:06:39.863Z,36.66
2022-09-01T10:09:06.253Z,36.09
2022-09-01T10:11:35.850Z,35.34
2022-09-01T10:13:59.086Z,34.61
2022-09-01T10:16:26.912Z,34.02
2022-09-01T10:18:51.902Z,34.07
2022-09-01T10:21:18.282Z,34.28
2022-09-01T10:23:44.960Z,34.27
2022-09-01T10:26:11.024Z,33.69
2022-09-01T10:28:37.429Z,34.83
2022-09-01T10:31:03.975Z,35.09
2022-09-01T10:33:30.248Z,35.10
2022-09-01T10:35:56.725Z,32.99
2022-09-01T10:38:23.091Z,32.27
2022-09-01T10:40:50.054Z,32.37
2022-09-01T10:43:15.853Z,33.25
2022-09-01T10:45:42.282Z,34.14
2022-09-01T10:48:13.042Z,33.55
2022-09-01T10:50:36.069Z,32.45
2022-09-01T10:53:01.449Z,32.35
2022-09-01T10:55:27.780Z,32.36
2022-09-01T10:57:54.176Z,32.01
2022-09-01T11:00:36.586Z,32.35
2022-09-01T11:02:47.030Z,32.53
2022-09-01T11:05:13.323Z,32.48
2022-09-01T11:07:59.922Z,33.73
2022-09-01T11:10:11.101Z,33.34
2022-09-01T11:12:33.688Z,32.74
2022-09-01T11:15:00.208Z,32.06
2022-09-01T11:17:26.829Z,32.53
2022-09-01T11:19:53.130Z,31.88
2022-09-01T11:22:19.662Z,31.68
2022-09-01T11:24:49.611Z,33.21
2022-09-01T11:27:12.450Z,33.18
2022-09-01T11:29:38.808Z,32.97
2022-09-01T11:32:05.231Z,32.04
2022-09-01T11:34:31.639Z,31.50
2022-09-01T11:36:58.062Z,31.54
2022-09-01T11:39:24.605Z,32.31
2022-09-01T11:41:55.756Z,32.02
2022-09-01T11:44:17.356Z,32.02
2022-09-01T11:46:43.993Z,32.42
2022-09-01T11:49:10.480Z,33.07
2022-09-01T11:51:36.864Z,32.18
2022-09-01T11:54:03.302Z,32.70
2022-09-01T11:56:29.675Z,34.05
2022-09-01T11:58:56.040Z,34.74
2022-09-01T12:01:22.497Z,34.37
2022-09-01T12:03:49.189Z,31.77
2022-09-01T12:06:15.528Z,30.65
2022-09-01T12:08:41.891Z,32.96
2022-09-01T12:11:08.282Z,33.68
2022-09-01T12:13:34.673Z,34.51
2022-09-01T12:16:17.402Z,35.13
2022-09-01T12:18:27.469Z,34.83
2022-09-01T12:20:53.963Z,35.45
2022-09-01T12:23:20.423Z,35.61
2022-09-01T12:25:46.929Z,35.97
2022-09-01T12:28:13.300Z,36.64
2022-09-01T12:30:39.721Z,37.59
2022-09-01T12:35:32.430Z,37.74
2022-09-01T12:37:58.833Z,38.08
2022-09-01T12:40:25.248Z,37.98
2022-09-01T12:42:51.654Z,37.84
2022-09-01T12:45:18.068Z,37.94
2022-09-01T12:47:44.473Z,38.49
2022-09-01T12:50:10.857Z,39.13
2022-09-01T12:52:37.541Z,39.55
2022-09-01T12:55:03.628Z,40.23
2022-09-01T12:57:30.014Z,40.95
2022-09-01T12:59:56.785Z,40.79
2022-09-01T13:02:23.011Z,39.70
2022-09-01T13:04:49.342Z,39.58
2022-09-01T13:07:15.884Z,39.20
2022-09-01T13:09:42.532Z,38.84
2022-09-01T13:12:08.627Z,38.82
2022-09-01T13:14:35.047Z,38.97
2022-09-01T13:17:01.420Z,39.62
2022-09-01T13:19:30.172Z,39.61
2022-09-01T13:21:54.200Z,40.09
2022-09-01T13:24:23.346Z,39.97
2022-09-01T13:27:20.303Z,39.65
2022-09-01T13:29:13.368Z,39.23
2022-09-01T13:32:17.111Z,38.47
2022-09-01T13:34:10.396Z,38.89
2022-09-01T13:36:51.533Z,38.16
2022-09-01T13:38:59.204Z,38.76
2022-09-01T13:41:25.576Z,38.44
2022-09-01T13:43:52.071Z,38.81
2022-09-01T13:46:18.482Z,39.29
2022-09-01T13:51:16.593Z,38.62
2022-09-01T13:53:37.645Z,38.45
2022-09-01T13:56:04.025Z,38.88
2022-09-01T13:58:30.402Z,38.68
2022-09-01T14:00:56.952Z,38.64
2022-09-01T14:03:23.261Z,41.54
2022-09-01T14:05:49.873Z,42.69
2022-09-01T14:08:16.059Z,43.38
2022-09-01T14:10:42.414Z,44.16
2022-09-01T14:13:08.787Z,44.32
2022-09-01T14:15:35.186Z,44.94
2022-09-01T14:18:01.584Z,45.76
2022-09-01T14:20:27.945Z,46.47
2022-09-01T14:22:54.332Z,47.19
2022-09-01T14:25:20.731Z,47.94
2022-09-01T14:27:47.590Z,48.47
2022-09-01T14:30:13.497Z,49.80
2022-09-01T14:32:39.909Z,50.66
2022-09-01T14:35:06.279Z,52.07
2022-09-01T14:37:32.781Z,53.39
2022-09-01T14:39:59.139Z,53.25
2022-09-01T14:42:25.510Z,53.25
2022-09-01T14:44:51.977Z,52.71
2022-09-01T14:47:19.254Z,52.75
2022-09-01T14:49:44.771Z,53.10
2022-09-01T14:52:11.823Z,53.22
2022-09-01T14:54:37.604Z,53.46
2022-09-01T14:59:30.339Z,54.30
2022-09-01T15:01:56.813Z,54.01
2022-09-01T15:04:23.185Z,53.94
2022-09-01T15:06:49.565Z,53.71
2022-09-01T15:09:18.977Z,53.66
2022-09-01T15:11:44.229Z,53.10
2022-09-01T15:14:08.820Z,52.83
2022-09-01T15:16:35.253Z,52.46
2022-09-01T15:19:01.704Z,52.73
2022-09-01T15:21:28.179Z,52.24
2022-09-01T15:23:54.801Z,54.45
2022-09-01T15:26:21.235Z,54.95
2022-09-01T15:28:47.668Z,55.14
2022-09-01T15:31:14.166Z,54.99
2022-09-01T15:33:40.421Z,55.30
2022-09-01T15:36:06.811Z,55.58
2022-09-01T15:38:33.310Z,56.04
2022-09-01T15:40:59.952Z,57.04
2022-09-01T15:43:26.323Z,57.33
2022-09-01T15:45:52.675Z,57.44
2022-09-01T15:48:19.058Z,57.17
2022-09-01T15:50:45.425Z,56.64
2022-09-01T15:53:11.798Z,56.89
2022-09-01T15:55:38.226Z,56.51
2022-09-01T15:58:04.659Z,56.54
2022-09-01T16:00:31.105Z,57.62
2022-09-01T16:02:57.446Z,58.65
2022-09-01T16:05:23.833Z,59.29
2022-09-01T16:07:50.283Z,59.54
2022-09-01T16:10:16.612Z,59.52
2022-09-01T16:12:42.977Z,59.71
2022-09-01T16:15:09.380Z,60.36
2022-09-01T16:17:35.815Z,60.51
2022-09-01T16:20:02.219Z,60.99
2022-09-01T16:22:28.572Z,61.22
2022-09-01T16:24:54.974Z,61.42
2022-09-01T16:27:21.345Z,61.32
2022-09-01T16:29:47.809Z,61.58
2022-09-01T16:32:14.107Z,61.43
2022-09-01T16:34:40.540Z,61.42
2022-09-01T16:37:06.900Z,61.35
2022-09-01T16:39:33.300Z,61.18
2022-09-01T16:41:59.735Z,61.48
2022-09-01T16:44:26.168Z,61.46
2022-09-01T16:46:52.663Z,62.11
2022-09-01T16:49:19.040Z,63.18
2022-09-01T16:51:45.407Z,64.31
2022-09-01T16:54:11.808Z,64.68
2022-09-01T16:56:38.209Z,64.83
2022-09-01T16:59:04.565Z,65.58
2022-09-01T17:01:31.056Z,66.62
2022-09-01T17:03:57.335Z,66.42
2022-09-01T17:06:23.761Z,66.79
2022-09-01T17:08:50.152Z,66.79
2022-09-01T17:11:16.525Z,66.58
2022-09-01T17:13:42.929Z,66.52
2022-09-01T17:16:09.335Z,66.87
2022-09-01T17:18:35.703Z,67.08
2022-09-01T17:21:02.052Z,66.61
2022-09-01T17:23:28.860Z,66.23
2022-09-01T17:25:54.791Z,66.56
2022-09-01T17:28:21.266Z,66.81
2022-09-01T17:30:47.546Z,67.83
2022-09-01T17:33:18.567Z,67.64
2022-09-01T17:35:40.417Z,67.52
2022-09-01T17:38:06.878Z,67.71
2022-09-01T17:40:33.396Z,67.90
2022-09-01T17:42:59.707Z,68.15
2022-09-01T17:45:26.185Z,68.54
2022-09-01T17:47:52.603Z,68.24
2022-09-01T17:50:18.976Z,68.54
2022-09-01T17:52:47.462Z,68.14
2022-09-01T17:55:11.809Z,68.78
2022-09-01T17:57:38.195Z,68.61
2022-09-01T18:00:04.589Z,68.41
2022-09-01T18:02:30.966Z,68.80
2022-09-01T18:04:57.512Z,68.84
2022-09-01T18:07:23.820Z,68.64
2022-09-01T18:09:50.187Z,68.83
2022-09-01T18:12:16.572Z,68.77
2022-09-01T18:14:42.976Z,68.58
2022-09-01T18:17:09.360Z,68.41
2022-09-01T18:19:35.748Z,68.63
2022-09-01T18:22:02.155Z,68.50
2022-09-01T18:24:28.558Z,68.13
2022-09-01T18:26:55.167Z,68.23
2022-09-01T18:29:21.581Z,67.66
2022-09-01T18:31:48.024Z,67.93
2022-09-01T18:34:14.419Z,67.81
2022-09-01T18:36:41.007Z,67.93
2022-09-01T18:39:07.689Z,67.34
2022-09-01T18:41:34.417Z,66.79
2022-09-01T18:44:01.061Z,66.50
2022-09-01T18:46:27.749Z,66.17
2022-09-01T18:48:54.439Z,65.71
2022-09-01T18:51:21.056Z,65.33
2022-09-01T18:53:47.705Z,65.07
2022-09-01T18:56:14.358Z,64.37
2022-09-01T18:58:41.106Z,64.36
2022-09-01T19:01:07.725Z,64.39
2022-09-01T19:03:34.359Z,64.39
2022-09-01T19:06:01.009Z,64.67
2022-09-01T19:08:27.771Z,64.70
2022-09-01T19:10:54.379Z,64.99
2022-09-01T19:13:20.977Z,65.04
2022-09-01T19:15:47.562Z,65.47
2022-09-01T19:18:14.300Z,65.90
2022-09-01T19:20:40.825Z,66.36
2022-09-01T19:23:07.462Z,66.53
2022-09-01T19:25:33.990Z,66.46
2022-09-01T19:28:00.647Z,66.74
2022-09-01T19:30:27.069Z,67.15
2022-09-01T19:32:53.501Z,67.71
2022-09-01T19:35:19.883Z,67.95
2022-09-01T19:37:46.300Z,68.51
2022-09-01T19:40:12.812Z,68.69
2022-09-01T19:42:39.126Z,68.76
2022-09-01T19:45:06.797Z,69.10
2022-09-01T19:47:31.929Z,69.11
2022-09-01T19:49:58.497Z,69.62
2022-09-01T19:52:24.860Z,70.10
2022-09-01T19:54:51.229Z,70.11
2022-09-01T19:57:17.614Z,70.14
2022-09-01T19:59:44.015Z,70.18
2022-09-01T20:02:10.466Z,70.58
2022-09-01T20:04:36.780Z,70.36
2022-09-01T20:07:03.175Z,70.70
2022-09-01T20:09:29.621Z,70.80
2022-09-01T20:11:55.990Z,70.82
2022-09-01T20:14:22.382Z,70.90
2022-09-01T20:16:48.817Z,70.50
2022-09-01T20:19:15.250Z,70.16
2022-09-01T20:21:41.676Z,69.89
2022-09-01T20:24:08.076Z,69.93
2022-09-01T20:26:34.451Z,70.09
2022-09-01T20:29:00.823Z,70.16
2022-09-01T20:31:27.286Z,70.39
2022-09-01T20:33:53.599Z,70.26
2022-09-01T20:36:20.067Z,70.16
2022-09-01T20:38:46.508Z,70.00
2022-09-01T20:41:12.891Z,69.99
2022-09-01T20:43:39.375Z,69.85
2022-09-01T20:46:05.781Z,70.09
2022-09-01T20:48:32.153Z,70.27
2022-09-01T20:50:58.572Z,70.36
2022-09-01T20:53:25.006Z,70.27
2022-09-01T20:55:51.408Z,70.66
2022-09-01T20:58:17.776Z,70.78
2022-09-01T21:00:44.201Z,71.48
2022-09-01T21:03:12.233Z,71.68
2022-09-01T21:05:39.941Z,71.87
2022-09-01T21:08:03.396Z,71.77
2022-09-01T21:10:29.772Z,72.00
2022-09-01T21:12:56.137Z,71.83
2022-09-01T21:15:22.504Z,71.85
2022-09-01T21:17:48.917Z,71.94
2022-09-01T21:20:15.287Z,72.03
2022-09-01T21:22:41.980Z,72.16
2022-09-01T21:25:08.342Z,72.16
2022-09-01T21:27:34.730Z,72.24
2022-09-01T21:30:01.100Z,72.20
2022-09-01T21:32:27.515Z,72.31
2022-09-01T21:34:53.925Z,72.30
2022-09-01T21:37:20.392Z,72.55
2022-09-01T21:39:46.773Z,72.72
2022-09-01T21:42:13.155Z,73.15
2022-09-01T21:44:39.586Z,73.74
2022-09-01T21:47:05.952Z,73.85
2022-09-01T21:49:33.217Z,73.93
2022-09-01T21:51:58.729Z,74.62
2022-09-01T21:54:25.125Z,74.77
2022-09-01T21:56:51.487Z,75.15
2022-09-01T21:59:17.886Z,75.65
2022-09-01T22:01:44.307Z,75.61
2022-09-01T22:04:10.744Z,75.72
2022-09-01T22:06:37.097Z,75.79
2022-09-01T22:09:03.482Z,75.57
2022-09-01T22:11:29.854Z,75.34
2022-09-01T22:13:56.238Z,75.13
2022-09-01T22:16:22.642Z,75.29
2022-09-01T22:18:49.037Z,74.75
2022-09-01T22:21:15.466Z,74.45
2022-09-01T22:23:41.880Z,74.15
2022-09-01T22:26:10.452Z,73.92
2022-09-01T22:28:34.767Z,73.64
2022-09-01T22:31:01.180Z,73.71
2022-09-01T22:33:27.530Z,73.58
2022-09-01T22:35:53.881Z,73.17
2022-09-01T22:38:20.390Z,72.95
2022-09-01T22:40:46.838Z,72.94
2022-09-01T22:43:13.331Z,72.99
2022-09-01T22:45:39.536Z,73.10
2022-09-01T22:48:05.925Z,73.22
2022-09-01T22:50:32.301Z,73.25
2022-09-01T22:52:58.690Z,73.27
2022-09-01T22:55:25.078Z,73.50
2022-09-01T22:57:51.546Z,73.94
2022-09-01T23:00:17.986Z,74.16
2022-09-01T23:02:44.442Z,74.49
2022-09-01T23:05:10.755Z,74.87
2022-09-01T23:07:37.116Z,75.45
2022-09-01T23:10:03.518Z,76.11
2022-09-01T23:12:29.882Z,76.38
2022-09-01T23:14:56.241Z,76.55
2022-09-01T23:17:22.710Z,76.80
2022-09-01T23:19:49.092Z,76.76
2022-09-01T23:22:15.467Z,77.46
2022-09-01T23:24:41.871Z,77.26
2022-09-01T23:27:08.255Z,77.40
2022-09-01T23:29:34.669Z,77.31
2022-09-01T23:32:01.103Z,77.34
2022-09-01T23:34:27.440Z,77.40
2022-09-01T23:36:53.821Z,77.41
2022-09-01T23:39:20.300Z,76.78
2022-09-01T23:41:46.672Z,76.50
2022-09-01T23:44:13.062Z,76.31
2022-09-01T23:46:39.434Z,76.43
2022-09-01T23:49:05.857Z,76.27
2022-09-01T23:51:32.256Z,76.18
2022-09-01T23:53:58.616Z,76.13
2022-09-01T23:56:24.985Z,75.94
2022-09-01T23:58:51.368Z,75.87
